Time;durP1;ratioP1;P1;durP2;ratioP2;P2;SDS_P1;SDS_P2;PMS_P1;PMS_P2;Temp;Humidity;BMP_temperature;BMP_pressure;BME280_temperature;BME280_humidity;BME280_pressure;Samples;Min_cycle;Max_cycle;Signal;HPM_P1;HPM_P2
2021/11/20 00:00:41;;;;;;;12.40;3.20;;;11.10;99.90;;;;;;5059493;28;20068;-54
2021/11/20 00:03:08;;;;;;;13.23;3.55;;;11.10;99.90;;;;;;5055113;28;20017;-55
2021/11/20 00:05:41;;;;;;;15.60;3.55;;;11.10;99.90;;;;;;5057022;28;20021;-56
2021/11/20 00:08:07;;;;;;;17.48;3.75;;;11.10;99.90;;;;;;5040295;28;20029;-53
2021/11/20 00:10:35;;;;;;;11.68;3.15;;;11.00;99.90;;;;;;5065739;28;20104;-52
2021/11/20 00:13:01;;;;;;;10.13;3.03;;;11.00;99.90;;;;;;5050076;28;20056;-55
2021/11/20 00:15:30;;;;;;;13.60;3.45;;;11.00;99.90;;;;;;5057660;28;20060;-54
2021/11/20 00:17:57;;;;;;;9.80;3.60;;;11.00;99.90;;;;;;5047421;28;20032;-56
2021/11/20 00:20:27;;;;;;;10.00;2.70;;;11.00;99.90;;;;;;5050973;28;20094;-57
2021/11/20 00:22:54;;;;;;;10.35;2.85;;;10.90;99.90;;;;;;5049792;28;20036;-52
2021/11/20 00:25:50;;;;;;;8.82;2.53;;;11.00;99.90;;;;;;5062253;28;20033;-55
2021/11/20 00:28:21;;;;;;;8.80;3.00;;;11.00;99.90;;;;;;5062517;28;20041;-55
2021/11/20 00:30:58;;;;;;;9.10;3.33;;;10.90;99.90;;;;;;5060514;28;20039;-56
2021/11/20 00:33:27;;;;;;;11.45;2.80;;;11.00;99.90;;;;;;5062180;28;20557;-53
2021/11/20 00:35:55;;;;;;;14.23;2.40;;;11.00;99.90;;;;;;5051527;28;20021;-56
2021/11/20 00:38:21;;;;;;;9.15;2.83;;;10.90;99.90;;;;;;5061481;28;20021;-56
2021/11/20 00:40:51;;;;;;;12.90;3.83;;;10.90;99.90;;;;;;5035701;28;20029;-53
2021/11/20 00:43:19;;;;;;;11.45;3.05;;;10.90;99.90;;;;;;5069348;28;20511;-54
2021/11/20 00:45:45;;;;;;;5.95;2.17;;;11.00;99.90;;;;;;5063006;28;20036;-54
2021/11/20 00:48:12;;;;;;;8.55;2.33;;;10.90;99.90;;;;;;5045561;28;20412;-56
2021/11/20 00:50:40;;;;;;;9.35;2.78;;;11.00;99.90;;;;;;5067702;28;20570;-56
2021/11/20 00:53:07;;;;;;;11.77;2.60;;;10.90;99.90;;;;;;5049484;28;20036;-55
2021/11/20 00:55:33;;;;;;;14.88;3.20;;;10.90;99.90;;;;;;5063024;28;20471;-54
2021/11/20 00:58:00;;;;;;;10.93;2.95;;;10.90;99.90;;;;;;5050193;28;20082;-57
2021/11/20 01:00:30;;;;;;;10.88;2.53;;;10.90;99.90;;;;;;5049216;28;20443;-57
2021/11/20 01:02:56;;;;;;;12.77;2.97;;;10.90;99.90;;;;;;5065200;28;20500;-53
2021/11/20 01:05:21;;;;;;;6.13;2.15;;;10.90;99.90;;;;;;5037946;28;20104;-54
2021/11/20 01:07:47;;;;;;;7.00;2.60;;;10.90;99.90;;;;;;5047621;28;20032;-56
2021/11/20 01:10:17;;;;;;;5.45;2.47;;;10.90;99.90;;;;;;5059221;28;20040;-56
2021/11/20 01:12:43;;;;;;;12.30;2.28;;;10.90;99.90;;;;;;5054730;28;20025;-56
2021/11/20 01:15:12;;;;;;;9.32;2.13;;;10.90;99.90;;;;;;5059783;28;20540;-57
2021/11/20 01:17:38;;;;;;;9.23;2.00;;;10.90;99.90;;;;;;5068050;28;20033;-54
2021/11/20 01:20:07;;;;;;;11.57;2.53;;;10.90;99.90;;;;;;5048446;28;20052;-56
2021/11/20 01:22:33;;;;;;;10.18;2.40;;;10.90;99.90;;;;;;5048834;28;20028;-56
2021/11/20 01:24:59;;;;;;;9.27;2.20;;;10.90;99.90;;;;;;5058711;28;20453;-54
2021/11/20 01:27:25;;;;;;;10.98;2.90;;;10.90;99.90;;;;;;5055276;28;20040;-54
2021/11/20 01:29:51;;;;;;;9.23;2.38;;;10.90;99.90;;;;;;5056407;28;20056;-56
2021/11/20 01:32:17;;;;;;;11.48;2.95;;;10.90;99.90;;;;;;5034005;28;20037;-53
2021/11/20 01:34:45;;;;;;;10.65;2.53;;;10.90;99.90;;;;;;5051322;28;20665;-53
2021/11/20 01:37:15;;;;;;;7.97;1.90;;;10.90;99.90;;;;;;5068122;28;20028;-56
2021/11/20 01:39:41;;;;;;;10.43;2.55;;;10.80;99.90;;;;;;5063944;28;20440;-54
2021/11/20 01:42:19;;;;;;;10.75;2.20;;;10.80;99.90;;;;;;5060260;28;20031;-57
2021/11/20 01:44:52;;;;;;;8.43;2.35;;;10.90;99.90;;;;;;5053132;28;20102;-53
2021/11/20 01:47:36;;;;;;;13.85;2.70;;;10.80;99.90;;;;;;5068171;28;20139;-55
2021/11/20 01:50:19;;;;;;;9.05;2.08;;;10.80;99.90;;;;;;5054129;28;20021;-58
2021/11/20 01:52:49;;;;;;;4.45;1.88;;;10.80;99.90;;;;;;5048266;28;20031;-55
2021/11/20 01:55:55;;;;;;;9.45;3.00;;;10.80;99.90;;;;;;5063671;28;20032;-54
2021/11/20 01:58:27;;;;;;;7.82;2.95;;;10.80;99.90;;;;;;5050207;28;20048;-52
2021/11/20 02:01:06;;;;;;;7.80;3.10;;;10.80;99.90;;;;;;5051946;28;20432;-52
2021/11/20 02:03:46;;;;;;;8.48;2.85;;;10.80;99.90;;;;;;5057167;28;20116;-52
2021/11/20 02:06:17;;;;;;;10.57;3.15;;;10.80;99.90;;;;;;5061143;28;20036;-55
2021/11/20 02:08:46;;;;;;;6.88;2.45;;;10.80;99.90;;;;;;5066832;28;20025;-56
2021/11/20 02:11:23;;;;;;;9.75;3.58;;;10.80;99.90;;;;;;5055258;28;20028;-53
2021/11/20 02:13:49;;;;;;;11.70;3.60;;;10.80;99.90;;;;;;5049049;28;20045;-54
2021/11/20 02:16:38;;;;;;;7.85;3.08;;;10.80;99.90;;;;;;5064812;28;20548;-53
2021/11/20 02:19:10;;;;;;;5.63;3.17;;;10.80;99.90;;;;;;5063636;28;20056;-54
2021/11/20 02:21:53;;;;;;;15.52;3.60;;;10.80;99.90;;;;;;5048078;28;20017;-55
2021/11/20 02:24:19;;;;;;;12.48;3.03;;;10.80;99.90;;;;;;5053599;28;20021;-58
2021/11/20 02:26:44;;;;;;;10.80;4.80;;;10.80;99.90;;;;;;5067718;28;20037;-58
2021/11/20 02:29:12;;;;;;;10.35;3.53;;;10.80;99.90;;;;;;5062698;28;20025;-52
2021/11/20 02:31:57;;;;;;;10.07;3.63;;;10.80;99.90;;;;;;5030308;28;20037;-55
2021/11/20 02:34:26;;;;;;;11.02;2.95;;;10.80;99.90;;;;;;5058312;28;20036;-55
2021/11/20 02:36:51;;;;;;;8.68;3.83;;;10.80;99.90;;;;;;5049185;28;20073;-57
2021/11/20 02:39:23;;;;;;;6.90;3.38;;;10.70;99.90;;;;;;5050841;28;20025;-56
2021/11/20 02:41:53;;;;;;;7.80;4.00;;;10.80;99.90;;;;;;5059223;28;20025;-56
2021/11/20 02:44:21;;;;;;;7.18;4.07;;;10.80;99.90;;;;;;5047765;28;20025;-55
2021/11/20 02:46:50;;;;;;;7.80;3.97;;;10.80;99.90;;;;;;5047377;28;20047;-55
2021/11/20 02:49:17;;;;;;;10.85;3.65;;;10.70;99.90;;;;;;5055764;28;20024;-57
2021/11/20 02:51:47;;;;;;;15.70;4.38;;;10.80;99.90;;;;;;5067183;28;20043;-56
2021/11/20 02:54:20;;;;;;;9.43;3.08;;;10.80;99.90;;;;;;5060054;28;20412;-53
2021/11/20 02:56:53;;;;;;;14.95;3.90;;;10.80;99.90;;;;;;5048451;28;20472;-52
2021/11/20 02:59:18;;;;;;;9.90;3.30;;;10.80;99.90;;;;;;5055671;28;20060;-56
2021/11/20 03:01:46;;;;;;;15.60;3.55;;;10.80;99.90;;;;;;5047785;28;20473;-54
2021/11/20 03:04:15;;;;;;;13.88;4.00;;;10.70;99.90;;;;;;5054301;28;20067;-58
2021/11/20 03:06:40;;;;;;;13.07;3.80;;;10.70;99.90;;;;;;5056975;28;20122;-56
2021/11/20 03:09:09;;;;;;;10.43;3.33;;;10.70;99.90;;;;;;5061326;28;20028;-55
2021/11/20 03:11:36;;;;;;;6.55;2.95;;;10.70;99.90;;;;;;5063972;28;20043;-56
2021/11/20 03:14:05;;;;;;;10.13;3.33;;;10.70;99.90;;;;;;5056567;28;20033;-55
2021/11/20 03:16:37;;;;;;;8.45;3.38;;;10.70;99.90;;;;;;5063152;28;20501;-54
2021/11/20 03:19:03;;;;;;;14.07;3.63;;;10.70;99.90;;;;;;5065948;28;20378;-56
2021/11/20 03:21:30;;;;;;;10.05;3.30;;;10.70;99.90;;;;;;5053587;28;20029;-56
2021/11/20 03:23:59;;;;;;;9.07;3.35;;;10.70;99.90;;;;;;5050688;28;20025;-52
2021/11/20 03:26:25;;;;;;;16.80;3.80;;;10.70;99.90;;;;;;5051778;28;20556;-52
2021/11/20 03:28:50;;;;;;;8.13;3.13;;;10.70;99.90;;;;;;5068708;28;20146;-52
2021/11/20 03:31:16;;;;;;;8.45;3.85;;;10.70;99.90;;;;;;5051503;28;20511;-53
2021/11/20 03:33:42;;;;;;;14.50;4.93;;;10.70;99.90;;;;;;5051818;28;20688;-51
2021/11/20 03:36:08;;;;;;;12.30;3.67;;;10.70;99.90;;;;;;5068397;28;20035;-54
2021/11/20 03:38:34;;;;;;;15.65;5.88;;;10.70;99.90;;;;;;5036963;28;20033;-53
2021/11/20 03:41:00;;;;;;;15.75;4.25;;;10.70;99.90;;;;;;5060091;28;20056;-55
2021/11/20 03:43:25;;;;;;;13.35;4.03;;;10.70;99.90;;;;;;5054368;28;20501;-53
2021/11/20 03:45:51;;;;;;;12.65;4.80;;;10.70;99.90;;;;;;5058498;28;20038;-53
2021/11/20 03:48:18;;;;;;;15.35;5.53;;;10.70;99.90;;;;;;5062862;28;20086;-54
2021/11/20 03:50:45;;;;;;;13.32;5.95;;;10.70;99.90;;;;;;5050346;28;20086;-56
2021/11/20 03:53:12;;;;;;;13.45;6.07;;;10.70;99.90;;;;;;5050362;28;20024;-53
2021/11/20 03:55:40;;;;;;;13.57;6.60;;;10.70;99.90;;;;;;5051312;28;20052;-54
2021/11/20 03:58:07;;;;;;;17.63;5.57;;;10.70;99.90;;;;;;5064794;28;20067;-53
2021/11/20 04:00:37;;;;;;;15.63;6.47;;;10.70;99.90;;;;;;5050627;28;20035;-52
2021/11/20 04:03:03;;;;;;;14.25;6.20;;;10.70;99.90;;;;;;5051452;28;20123;-55
2021/11/20 04:05:32;;;;;;;15.15;6.97;;;10.60;99.90;;;;;;5069035;28;20472;-54
2021/11/20 04:07:58;;;;;;;15.98;7.65;;;10.70;99.90;;;;;;5069384;28;20520;-53
2021/11/20 04:10:24;;;;;;;18.80;6.50;;;10.60;99.90;;;;;;5069852;28;20039;-52
2021/11/20 04:12:49;;;;;;;18.65;7.70;;;10.70;99.90;;;;;;5069550;28;20593;-54
2021/11/20 04:15:20;;;;;;;18.52;8.10;;;10.60;99.90;;;;;;5069554;28;20111;-53
2021/11/20 04:17:46;;;;;;;20.60;8.73;;;10.70;99.90;;;;;;5050629;28;20029;-52
2021/11/20 04:20:17;;;;;;;15.82;7.55;;;10.60;99.90;;;;;;5049729;28;20037;-54
2021/11/20 04:22:43;;;;;;;20.33;7.22;;;10.60;99.90;;;;;;5052374;28;20035;-55
2021/11/20 04:25:11;;;;;;;21.63;8.27;;;10.60;99.90;;;;;;5051319;28;20017;-57
2021/11/20 04:27:36;;;;;;;26.27;7.72;;;10.60;99.90;;;;;;5056287;28;20037;-53
2021/11/20 04:30:04;;;;;;;17.45;6.80;;;10.60;99.90;;;;;;5059823;28;20103;-54
2021/11/20 04:32:30;;;;;;;21.67;6.38;;;10.60;99.90;;;;;;5063083;28;20029;-51
2021/11/20 04:34:55;;;;;;;21.70;8.27;;;10.60;99.90;;;;;;5058062;28;20024;-52
2021/11/20 04:37:21;;;;;;;15.45;6.28;;;10.60;99.90;;;;;;5069011;28;20055;-52
2021/11/20 04:39:46;;;;;;;13.63;5.72;;;10.60;99.90;;;;;;5060299;28;20079;-55
2021/11/20 04:42:12;;;;;;;19.83;7.10;;;10.60;99.90;;;;;;5031627;28;20539;-53
2021/11/20 04:44:38;;;;;;;20.25;6.82;;;10.60;99.90;;;;;;5039221;28;20595;-55
2021/11/20 04:47:03;;;;;;;17.23;6.05;;;10.60;99.90;;;;;;5069517;28;20024;-56
2021/11/20 04:49:29;;;;;;;12.82;6.22;;;10.60;99.90;;;;;;5064440;28;20018;-54
2021/11/20 04:51:55;;;;;;;14.93;6.72;;;10.60;99.90;;;;;;5069228;28;20028;-51
2021/11/20 04:54:20;;;;;;;21.23;7.20;;;10.60;99.90;;;;;;5057255;28;20032;-56
2021/11/20 04:56:46;;;;;;;11.77;6.28;;;10.60;99.90;;;;;;5055503;28;20081;-56
2021/11/20 04:59:12;;;;;;;16.55;7.20;;;10.60;99.90;;;;;;5058471;28;20086;-56
2021/11/20 05:01:37;;;;;;;19.42;7.38;;;10.60;99.90;;;;;;5053757;28;20035;-56
2021/11/20 05:04:03;;;;;;;20.95;7.70;;;10.60;99.90;;;;;;5066096;28;20019;-54
2021/11/20 05:06:29;;;;;;;14.15;6.72;;;10.60;99.90;;;;;;5048942;28;20075;-53
2021/11/20 05:08:59;;;;;;;13.52;7.28;;;10.60;99.90;;;;;;5062773;28;20033;-52
2021/11/20 05:11:26;;;;;;;17.25;8.00;;;10.60;99.90;;;;;;5058303;28;20012;-57
2021/11/20 05:13:51;;;;;;;18.77;8.60;;;10.60;99.90;;;;;;5064385;28;20098;-57
2021/11/20 05:16:18;;;;;;;18.05;9.77;;;10.70;99.90;;;;;;5062181;28;20028;-55
2021/11/20 05:18:44;;;;;;;18.88;10.57;;;10.70;99.90;;;;;;5055872;28;20031;-57
2021/11/20 05:21:13;;;;;;;28.20;11.60;;;10.70;99.90;;;;;;5056443;28;20027;-54
2021/11/20 05:23:40;;;;;;;25.05;13.57;;;10.60;99.90;;;;;;5055990;28;20082;-52
2021/11/20 05:26:08;;;;;;;23.40;11.80;;;10.60;99.90;;;;;;5067919;28;20020;-53
2021/11/20 05:28:35;;;;;;;26.80;12.10;;;10.60;99.90;;;;;;5066429;28;20060;-56
2021/11/20 05:31:01;;;;;;;29.05;13.00;;;10.60;99.90;;;;;;5050789;28;20035;-56
2021/11/20 05:33:31;;;;;;;22.55;12.00;;;10.60;99.90;;;;;;5049889;28;20033;-57
2021/11/20 05:35:58;;;;;;;18.10;11.73;;;10.60;99.90;;;;;;5048222;28;20055;-54
2021/11/20 05:38:23;;;;;;;25.50;12.43;;;10.70;99.90;;;;;;5066749;28;20035;-56
2021/11/20 05:40:49;;;;;;;19.02;10.32;;;10.60;99.90;;;;;;5051812;28;20021;-54
2021/11/20 05:43:18;;;;;;;19.90;11.00;;;10.70;99.90;;;;;;5048588;28;20021;-55
2021/11/20 05:45:48;;;;;;;23.90;11.32;;;10.70;99.90;;;;;;5065610;28;20025;-55
2021/11/20 05:48:14;;;;;;;18.33;10.45;;;10.70;99.90;;;;;;5050900;28;20112;-56
2021/11/20 05:50:40;;;;;;;21.85;11.07;;;10.70;99.90;;;;;;5052341;28;20385;-56
2021/11/20 05:53:19;;;;;;;19.23;10.50;;;10.70;99.90;;;;;;5048072;28;20108;-54
2021/11/20 05:55:46;;;;;;;19.65;10.93;;;10.60;99.90;;;;;;5048338;28;20593;-55
2021/11/20 05:58:13;;;;;;;20.92;10.43;;;10.60;99.90;;;;;;5049198;28;20136;-54
2021/11/20 06:00:46;;;;;;;20.45;10.32;;;10.60;99.90;;;;;;5048707;28;20032;-55
2021/11/20 06:03:13;;;;;;;19.63;10.38;;;10.60;99.90;;;;;;5049872;28;20029;-53
2021/11/20 06:05:40;;;;;;;21.90;10.70;;;10.60;99.90;;;;;;5061812;28;20029;-54
2021/11/20 06:08:06;;;;;;;18.40;10.30;;;10.60;99.90;;;;;;5068080;28;20032;-53
2021/11/20 06:10:33;;;;;;;20.13;10.60;;;10.50;99.90;;;;;;5055600;28;20100;-56
2021/11/20 06:12:58;;;;;;;19.20;10.20;;;10.60;99.90;;;;;;5068289;28;20024;-53
2021/11/20 06:15:24;;;;;;;22.98;9.55;;;10.60;99.90;;;;;;5058846;28;20029;-55
2021/11/20 06:17:50;;;;;;;19.95;9.23;;;10.60;99.90;;;;;;5047611;28;20700;-56
2021/11/20 06:20:16;;;;;;;19.63;9.32;;;10.60;99.90;;;;;;5048503;28;20334;-55
2021/11/20 06:22:42;;;;;;;19.80;9.77;;;10.60;99.90;;;;;;5048393;28;20388;-56
2021/11/20 06:25:08;;;;;;;14.48;8.45;;;10.60;99.90;;;;;;5047712;28;20026;-52
2021/11/20 06:27:35;;;;;;;19.05;10.18;;;10.60;99.90;;;;;;5056445;28;20024;-54
2021/11/20 06:30:01;;;;;;;17.23;9.45;;;10.60;99.90;;;;;;5068097;28;20082;-56
2021/11/20 06:32:27;;;;;;;19.75;9.13;;;10.60;99.90;;;;;;5068213;28;20388;-56
2021/11/20 06:34:53;;;;;;;17.13;8.65;;;10.60;99.90;;;;;;5068025;28;20025;-54
2021/11/20 06:37:19;;;;;;;15.45;8.40;;;10.50;99.90;;;;;;5062542;28;20017;-55
2021/11/20 06:39:45;;;;;;;13.20;9.60;;;10.50;99.90;;;;;;5065043;28;20032;-53
2021/11/20 06:42:11;;;;;;;14.50;9.15;;;10.60;99.90;;;;;;5058458;28;20101;-52
2021/11/20 06:44:36;;;;;;;17.92;9.00;;;10.60;99.90;;;;;;5067338;28;20029;-56
2021/11/20 06:47:02;;;;;;;14.82;8.30;;;10.60;99.90;;;;;;5070116;28;20055;-55
2021/11/20 06:49:28;;;;;;;18.05;9.00;;;10.60;99.90;;;;;;5068682;28;20032;-55
2021/11/20 06:51:54;;;;;;;16.00;8.60;;;10.60;99.90;;;;;;5070617;28;20032;-56
2021/11/20 06:54:19;;;;;;;13.77;8.35;;;10.60;99.90;;;;;;5055072;28;20063;-53
2021/11/20 06:57:47;;;;;;;16.33;9.27;;;10.50;99.90;;;;;;5063550;28;20487;-56
2021/11/20 07:02:14;;;;;;;14.50;8.30;;;10.60;99.90;;;;;;5067122;28;20044;-56
2021/11/20 07:04:40;;;;;;;12.93;8.82;;;10.60;99.90;;;;;;5063888;28;20039;-55
2021/11/20 07:07:13;;;;;;;16.05;8.68;;;10.50;99.90;;;;;;5066356;28;20579;-54
2021/11/20 07:09:39;;;;;;;16.50;8.07;;;10.50;99.90;;;;;;5068302;28;20137;-56
2021/11/20 07:12:06;;;;;;;17.77;9.90;;;10.60;99.90;;;;;;5055359;28;20067;-58
2021/11/20 07:14:32;;;;;;;11.00;9.02;;;10.60;99.90;;;;;;5052679;28;20029;-55
2021/11/20 07:16:57;;;;;;;21.50;9.95;;;10.60;99.90;;;;;;5070450;28;20017;-56
2021/11/20 07:19:23;;;;;;;24.90;10.32;;;10.60;99.90;;;;;;5062442;28;20032;-52
2021/11/20 07:21:49;;;;;;;19.27;10.05;;;10.60;99.90;;;;;;5055751;28;20016;-56
2021/11/20 07:24:19;;;;;;;18.75;10.00;;;10.60;99.90;;;;;;5063000;28;20051;-56
2021/11/20 07:26:46;;;;;;;20.10;11.05;;;10.60;99.90;;;;;;5036936;28;20127;-56
2021/11/20 07:29:13;;;;;;;16.05;11.05;;;10.60;99.90;;;;;;5059323;28;20029;-55
2021/11/20 07:31:39;;;;;;;15.50;10.63;;;10.60;99.90;;;;;;5056444;28;20488;-57
2021/11/20 07:34:05;;;;;;;13.80;9.55;;;10.50;99.90;;;;;;5064335;28;20037;-52
2021/11/20 07:36:35;;;;;;;19.60;10.68;;;10.60;99.90;;;;;;5059109;28;20441;-57
2021/11/20 07:39:03;;;;;;;16.58;10.18;;;10.60;99.90;;;;;;5062508;28;20500;-53
2021/11/20 07:41:29;;;;;;;20.10;9.50;;;10.60;99.90;;;;;;5070672;28;20021;-53
2021/11/20 07:43:58;;;;;;;20.95;10.82;;;10.60;99.90;;;;;;5070563;28;20138;-55
2021/11/20 07:46:24;;;;;;;15.50;10.00;;;10.60;99.90;;;;;;5066145;28;20021;-54
2021/11/20 07:48:50;;;;;;;12.38;9.25;;;10.60;99.90;;;;;;5050596;28;20025;-53
2021/11/20 07:51:18;;;;;;;22.77;11.05;;;10.60;99.90;;;;;;5054219;28;20029;-53
2021/11/20 07:53:44;;;;;;;16.48;9.50;;;10.60;99.90;;;;;;5070846;28;20131;-56
2021/11/20 07:56:11;;;;;;;21.42;11.07;;;10.60;99.90;;;;;;5067769;28;20028;-52
2021/11/20 07:58:38;;;;;;;22.88;11.23;;;10.60;99.90;;;;;;5070402;28;20028;-52
2021/11/20 08:01:05;;;;;;;14.93;10.23;;;10.60;99.90;;;;;;5063755;28;20108;-55
2021/11/20 08:03:30;;;;;;;18.08;10.85;;;10.60;99.90;;;;;;5050372;28;20019;-54
2021/11/20 08:05:56;;;;;;;23.90;12.68;;;10.60;99.90;;;;;;5050233;28;20103;-52
2021/11/20 08:08:22;;;;;;;12.20;10.77;;;10.70;99.90;;;;;;5050224;28;20028;-55
2021/11/20 08:10:49;;;;;;;17.73;10.50;;;10.60;99.90;;;;;;5050334;28;20444;-53
2021/11/20 08:13:15;;;;;;;20.77;11.88;;;10.60;99.90;;;;;;5050201;28;20037;-55
2021/11/20 08:15:41;;;;;;;15.90;10.85;;;10.60;99.90;;;;;;5050298;28;20103;-52
2021/11/20 08:18:07;;;;;;;16.98;10.93;;;10.70;99.90;;;;;;5049637;28;20120;-55
2021/11/20 08:20:40;;;;;;;17.55;11.23;;;10.60;99.90;;;;;;5068876;28;20020;-55
2021/11/20 08:23:15;;;;;;;17.92;10.82;;;10.60;99.90;;;;;;5062551;28;20387;-57
2021/11/20 08:25:42;;;;;;;23.23;11.13;;;10.70;99.90;;;;;;5049840;28;20025;-54
2021/11/20 08:28:12;;;;;;;21.77;11.43;;;10.60;99.90;;;;;;5049442;28;20503;-53
2021/11/20 08:30:38;;;;;;;17.75;12.27;;;10.60;99.90;;;;;;5049489;28;20104;-51
2021/11/20 08:33:04;;;;;;;20.70;12.57;;;10.70;99.90;;;;;;5049710;28;20465;-51
2021/11/20 08:35:30;;;;;;;19.50;12.18;;;10.70;99.90;;;;;;5048800;28;20020;-53
2021/11/20 08:37:57;;;;;;;15.75;11.25;;;10.70;99.90;;;;;;5048667;28;20362;-54
2021/11/20 08:40:28;;;;;;;21.45;11.93;;;10.60;99.90;;;;;;5049985;28;20544;-59
2021/11/20 08:42:53;;;;;;;20.85;12.07;;;10.70;99.90;;;;;;5049306;28;20113;-55
2021/11/20 08:45:22;;;;;;;21.50;11.68;;;10.70;99.90;;;;;;5030976;28;20115;-53
2021/11/20 08:47:48;;;;;;;16.58;11.98;;;10.70;99.90;;;;;;5048639;28;20044;-54
2021/11/20 08:50:18;;;;;;;21.63;12.23;;;10.70;99.90;;;;;;5049163;28;20476;-55
2021/11/20 08:52:44;;;;;;;22.80;12.75;;;10.70;99.90;;;;;;5049088;28;20017;-53
2021/11/20 08:55:11;;;;;;;23.65;12.35;;;10.70;99.90;;;;;;5049792;28;20025;-55
2021/11/20 08:57:37;;;;;;;17.70;11.93;;;10.70;99.90;;;;;;5048699;28;20027;-56
2021/11/20 09:00:10;;;;;;;17.05;10.48;;;10.70;99.90;;;;;;5048688;28;20021;-51
2021/11/20 09:02:44;;;;;;;20.25;11.48;;;10.70;99.90;;;;;;5050146;28;20083;-55
2021/11/20 09:05:19;;;;;;;15.98;10.68;;;10.80;99.90;;;;;;5053490;28;20036;-57
2021/11/20 09:07:54;;;;;;;15.00;10.50;;;10.80;99.90;;;;;;5059962;28;20385;-53
2021/11/20 09:10:31;;;;;;;18.30;10.23;;;10.80;99.90;;;;;;5051842;28;20021;-53
2021/11/20 09:13:35;;;;;;;15.07;9.40;;;10.90;99.90;;;;;;5065715;28;20020;-56
2021/11/20 09:16:06;;;;;;;16.00;9.95;;;10.90;99.90;;;;;;5068776;28;20107;-51
2021/11/20 09:18:33;;;;;;;16.60;8.75;;;10.90;99.90;;;;;;5054385;28;20040;-57
2021/11/20 09:21:00;;;;;;;13.40;8.75;;;11.00;99.90;;;;;;5053688;28;20025;-56
2021/11/20 09:23:26;;;;;;;13.55;7.75;;;11.00;99.90;;;;;;5067836;28;20085;-51
2021/11/20 09:25:54;;;;;;;11.10;7.60;;;11.00;99.90;;;;;;5067068;28;20459;-53
2021/11/20 09:28:22;;;;;;;10.93;6.80;;;11.00;99.90;;;;;;5066509;28;20033;-53
2021/11/20 09:30:52;;;;;;;9.25;6.35;;;11.10;99.90;;;;;;5050680;28;20267;-54
2021/11/20 09:33:20;;;;;;;8.45;7.18;;;11.00;99.90;;;;;;5068092;28;20047;-51
2021/11/20 09:35:46;;;;;;;9.43;6.65;;;11.10;99.90;;;;;;5057260;28;20025;-52
2021/11/20 09:38:13;;;;;;;12.55;7.28;;;11.10;99.90;;;;;;5053949;28;20032;-52
2021/11/20 09:40:44;;;;;;;8.50;5.80;;;11.00;99.90;;;;;;5068395;28;20469;-53
2021/11/20 09:43:11;;;;;;;10.32;6.05;;;11.10;99.90;;;;;;5049289;28;20052;-51
2021/11/20 09:45:42;;;;;;;9.55;6.00;;;11.10;99.90;;;;;;5048393;28;20027;-55
2021/11/20 09:48:33;;;;;;;10.25;6.00;;;11.10;99.90;;;;;;5066494;28;20235;-56
2021/11/20 09:51:22;;;;;;;6.70;5.40;;;11.20;99.90;;;;;;5058415;28;20044;-55
2021/11/20 09:53:48;;;;;;;14.00;7.18;;;11.10;99.90;;;;;;5056005;28;20036;-52
2021/11/20 09:56:21;;;;;;;10.07;6.30;;;11.10;99.90;;;;;;5067265;28;20111;-56
2021/11/20 09:58:53;;;;;;;10.20;5.90;;;11.20;99.90;;;;;;5047916;28;20029;-53
2021/11/20 10:01:31;;;;;;;8.57;5.63;;;11.10;99.90;;;;;;5049642;28;20021;-52
2021/11/20 10:04:04;;;;;;;12.32;6.25;;;11.10;99.90;;;;;;5047860;28;20063;-56
2021/11/20 10:06:34;;;;;;;8.20;5.88;;;11.10;99.90;;;;;;5048056;28;20036;-52
2021/11/20 10:09:21;;;;;;;10.55;5.82;;;11.20;99.90;;;;;;5047507;28;20032;-51
2021/11/20 10:12:04;;;;;;;10.15;5.97;;;11.10;99.90;;;;;;5030131;28;20029;-56
2021/11/20 10:14:45;;;;;;;9.52;6.00;;;11.20;99.90;;;;;;5046643;28;20045;-59
2021/11/20 10:17:17;;;;;;;8.93;6.32;;;11.20;99.90;;;;;;5030963;28;20029;-54
2021/11/20 10:19:49;;;;;;;13.50;6.90;;;11.20;99.90;;;;;;5059407;28;20074;-55
2021/11/20 10:22:32;;;;;;;8.73;6.40;;;11.20;99.90;;;;;;5052983;28;20051;-54
2021/11/20 10:25:21;;;;;;;9.93;6.00;;;11.20;99.90;;;;;;5065354;28;20021;-53
2021/11/20 10:27:58;;;;;;;7.25;5.82;;;11.20;99.90;;;;;;5038672;28;20116;-57
2021/11/20 10:30:56;;;;;;;9.00;5.43;;;11.20;99.90;;;;;;5046409;28;20028;-56
2021/11/20 10:33:22;;;;;;;8.27;5.90;;;11.20;99.90;;;;;;5060746;28;20399;-54
2021/11/20 10:35:50;;;;;;;8.13;5.88;;;11.20;99.90;;;;;;5051617;28;20092;-53
2021/11/20 10:38:19;;;;;;;10.90;6.10;;;11.20;99.90;;;;;;5066194;28;20056;-54
2021/11/20 10:41:06;;;;;;;8.55;5.80;;;11.20;99.90;;;;;;5051859;28;20029;-54
2021/11/20 10:43:53;;;;;;;6.93;5.55;;;11.20;99.90;;;;;;5051983;28;20110;-57
2021/11/20 10:46:30;;;;;;;8.60;6.63;;;11.20;99.90;;;;;;5043443;28;20030;-56
2021/11/20 10:49:14;;;;;;;6.75;6.03;;;11.20;99.90;;;;;;5055874;28;20009;-51
2021/11/20 10:52:05;;;;;;;9.38;5.50;;;11.10;99.90;;;;;;5065222;28;20443;-54
2021/11/20 10:54:44;;;;;;;9.63;6.88;;;11.20;99.90;;;;;;5050955;28;20044;-54
2021/11/20 10:57:44;;;;;;;7.97;6.53;;;11.20;99.90;;;;;;5041327;28;20393;-55
2021/11/20 11:00:47;;;;;;;11.00;6.38;;;11.20;99.90;;;;;;5059374;28;20032;-53
2021/11/20 11:03:27;;;;;;;9.75;7.18;;;11.20;99.90;;;;;;5040320;28;20566;-54
2021/11/20 11:06:30;;;;;;;8.35;5.72;;;11.20;99.90;;;;;;5062859;28;20365;-57
2021/11/20 11:09:19;;;;;;;8.07;6.18;;;11.20;99.90;;;;;;5051392;28;20108;-57
2021/11/20 11:11:56;;;;;;;9.52;6.53;;;11.20;99.90;;;;;;5050323;28;20527;-54
2021/11/20 11:14:46;;;;;;;10.23;7.43;;;11.20;99.90;;;;;;5033883;28;20484;-56
2021/11/20 11:17:54;;;;;;;7.60;6.30;;;11.20;99.90;;;;;;5051145;28;20033;-55
2021/11/20 11:20:32;;;;;;;;;;;11.20;99.90;;;;;;5013626;28;20056;-55
2021/11/20 11:23:23;;;;;;;9.98;6.43;;;11.20;99.90;;;;;;5033122;28;19952;-53
2021/11/20 11:26:05;;;;;;;8.20;7.10;;;11.20;99.90;;;;;;5033092;28;20033;-53
2021/11/20 11:28:56;;;;;;;10.30;6.25;;;11.20;99.90;;;;;;5050828;28;20025;-56
2021/11/20 11:31:25;;;;;;;7.53;6.00;;;11.10;99.90;;;;;;5054905;28;20019;-57
2021/11/20 11:34:25;;;;;;;10.75;6.45;;;11.10;99.90;;;;;;5039817;28;20056;-55
2021/11/20 11:37:15;;;;;;;7.80;6.18;;;11.10;99.90;;;;;;5050903;28;20073;-57
2021/11/20 11:40:18;;;;;;;10.30;6.40;;;11.10;99.90;;;;;;5050448;28;20032;-54
2021/11/20 11:43:00;;;;;;;7.65;6.45;;;11.10;99.90;;;;;;5047563;28;20044;-58
2021/11/20 11:45:48;;;;;;;8.10;6.07;;;11.10;99.90;;;;;;5070251;28;20431;-57
2021/11/20 11:48:19;;;;;;;8.68;6.43;;;11.10;99.90;;;;;;5070012;28;20052;-54
2021/11/20 11:50:53;;;;;;;8.07;6.22;;;11.10;99.90;;;;;;5070982;28;20024;-56
2021/11/20 11:53:34;;;;;;;6.43;5.80;;;11.00;99.90;;;;;;5050764;28;20025;-57
2021/11/20 11:56:10;;;;;;;9.45;6.13;;;11.10;99.90;;;;;;5070654;28;20400;-55
2021/11/20 11:59:13;;;;;;;11.18;6.53;;;11.00;99.90;;;;;;5032756;28;20516;-56
2021/11/20 12:01:45;;;;;;;7.22;6.05;;;11.00;99.90;;;;;;5043660;28;20040;-55
2021/11/20 12:04:28;;;;;;;8.35;5.68;;;11.10;99.90;;;;;;5051594;28;20048;-55
2021/11/20 12:07:08;;;;;;;13.35;6.90;;;11.10;99.90;;;;;;5047012;28;20108;-54
2021/11/20 12:09:39;;;;;;;9.57;7.35;;;11.10;99.90;;;;;;5041774;28;20495;-51
2021/11/20 12:12:10;;;;;;;9.90;6.82;;;11.10;99.90;;;;;;5061095;28;20067;-56
2021/11/20 12:14:39;;;;;;;9.73;7.95;;;11.10;99.90;;;;;;5059467;28;20036;-57
2021/11/20 12:17:42;;;;;;;9.80;7.35;;;11.10;99.90;;;;;;5068230;28;20041;-52
2021/11/20 12:20:56;;;;;;;10.40;7.80;;;11.10;99.90;;;;;;5069581;28;20782;-56
2021/11/20 12:23:28;;;;;;;11.52;8.27;;;11.10;99.90;;;;;;5015880;28;20089;-54
2021/11/20 12:25:54;;;;;;;17.15;10.20;;;11.10;99.90;;;;;;5065117;28;20036;-56
2021/11/20 12:28:55;;;;;;;16.30;12.00;;;11.10;99.90;;;;;;5069889;28;20095;-53
2021/11/20 12:31:48;;;;;;;16.25;10.90;;;11.10;99.90;;;;;;5051987;28;20032;-56
2021/11/20 12:34:44;;;;;;;13.15;9.82;;;11.10;99.90;;;;;;5070016;28;20478;-55
2021/11/20 12:37:48;;;;;;;10.27;9.10;;;11.00;99.90;;;;;;5069125;28;20028;-54
2021/11/20 12:40:38;;;;;;;14.43;10.73;;;11.00;99.90;;;;;;5070069;28;20707;-56
2021/11/20 12:43:14;;;;;;;11.80;10.60;;;11.00;99.90;;;;;;5068685;28;20091;-53
2021/11/20 12:45:55;;;;;;;15.68;12.43;;;11.10;99.90;;;;;;5069922;28;20049;-53
2021/11/20 12:48:38;;;;;;;10.80;9.70;;;11.00;99.90;;;;;;5069432;28;20025;-55
2021/11/20 12:51:25;;;;;;;16.58;13.48;;;11.00;99.90;;;;;;5069693;28;20027;-54
2021/11/20 12:53:50;;;;;;;14.88;11.68;;;11.00;99.90;;;;;;5068934;28;20036;-56
2021/11/20 12:56:30;;;;;;;19.88;15.80;;;11.00;99.90;;;;;;5069084;28;20099;-53
2021/11/20 12:59:00;;;;;;;14.77;12.38;;;11.00;99.90;;;;;;5068971;28;20236;-52
2021/11/20 13:01:30;;;;;;;15.07;12.40;;;11.00;99.90;;;;;;5069222;28;20041;-52
2021/11/20 13:04:16;;;;;;;12.93;11.45;;;11.00;99.90;;;;;;5060591;28;20396;-56